createdAt,value
2022-12-23T00:01:08.863Z,21.20
2022-12-23T00:03:35.996Z,21.16
2022-12-23T00:06:15.072Z,21.11
2022-12-23T00:08:42.843Z,21.11
2022-12-23T00:11:18.472Z,21.05
2022-12-23T00:14:03.522Z,21.04
2022-12-23T00:16:30.130Z,21.00
2022-12-23T00:18:56.605Z,20.97
2022-12-23T00:21:23.146Z,20.95
2022-12-23T00:23:51.288Z,20.93
2022-12-23T00:26:21.588Z,20.91
2022-12-23T00:28:48.671Z,20.89
2022-12-23T00:31:18.286Z,20.87
2022-12-23T00:33:47.347Z,20.87
2022-12-23T00:36:28.378Z,20.85
2022-12-23T00:39:14.769Z,20.82
2022-12-23T00:41:59.673Z,20.81
2022-12-23T00:44:26.149Z,20.77
2022-12-23T00:46:52.745Z,20.74
2022-12-23T00:49:39.185Z,20.72
2022-12-23T00:52:08.602Z,20.70
2022-12-23T00:54:35.243Z,20.70
2022-12-23T00:57:02.049Z,20.68
2022-12-23T00:59:28.713Z,20.67
2022-12-23T01:02:14.502Z,20.64
2022-12-23T01:04:59.569Z,20.61
2022-12-23T01:07:26.169Z,20.60
2022-12-23T01:09:52.734Z,20.60
2022-12-23T01:12:19.256Z,20.58
2022-12-23T01:14:45.858Z,20.56
2022-12-23T01:17:12.543Z,20.55
2022-12-23T01:19:39.213Z,20.52
2022-12-23T01:22:05.703Z,20.51
2022-12-23T01:24:32.758Z,20.48
2022-12-23T01:26:59.585Z,20.48
2022-12-23T01:29:27.296Z,20.46
2022-12-23T01:31:53.858Z,20.45
2022-12-23T01:34:20.423Z,20.44
2022-12-23T01:36:46.875Z,20.42
2022-12-23T01:39:13.364Z,20.41
2022-12-23T01:41:58.031Z,20.39
2022-12-23T01:45:00.763Z,20.36
2022-12-23T01:47:27.224Z,20.35
2022-12-23T01:50:01.787Z,20.31
2022-12-23T01:52:29.344Z,20.29
2022-12-23T01:54:56.521Z,20.29
2022-12-23T01:57:24.080Z,20.28
2022-12-23T02:00:09.497Z,20.27
2022-12-23T02:02:55.591Z,20.25
2022-12-23T02:05:23.766Z,20.24
2022-12-23T02:08:10.725Z,20.21
2022-12-23T02:11:11.287Z,20.21
2022-12-23T02:14:17.730Z,20.20
2022-12-23T02:16:57.767Z,20.17
2022-12-23T02:20:01.479Z,20.15
2022-12-23T02:22:46.753Z,20.13
2022-12-23T02:25:41.257Z,20.11
2022-12-23T02:28:10.656Z,20.08
2022-12-23T02:30:45.904Z,20.07
2022-12-23T02:33:29.521Z,20.06
2022-12-23T02:36:10.421Z,20.05
2022-12-23T02:38:53.317Z,20.04
2022-12-23T02:42:18.597Z,20.02
2022-12-23T02:44:45.019Z,20.02
2022-12-23T02:47:35.649Z,20.01
2022-12-23T02:50:09.525Z,19.99
2022-12-23T02:52:37.833Z,19.99
2022-12-23T02:55:13.246Z,19.97
2022-12-23T02:57:44.860Z,19.96
2022-12-23T03:00:12.662Z,19.94
2022-12-23T03:02:40.579Z,19.94
2022-12-23T03:05:24.492Z,19.93
2022-12-23T03:07:53.890Z,19.93
2022-12-23T03:10:31.096Z,19.91
2022-12-23T03:13:03.041Z,19.89
2022-12-23T03:15:46.969Z,19.88
2022-12-23T03:18:34.202Z,19.88
2022-12-23T03:21:05.400Z,19.86
2022-12-23T03:23:42.107Z,19.86
2022-12-23T03:26:21.215Z,19.84
2022-12-23T03:28:51.741Z,19.83
2022-12-23T03:31:24.229Z,19.83
2022-12-23T03:33:58.241Z,19.81
2022-12-23T03:36:29.213Z,19.81
2022-12-23T03:38:56.976Z,19.80
2022-12-23T03:41:30.199Z,19.78
2022-12-23T03:44:29.246Z,19.79
2022-12-23T03:47:08.768Z,19.78
2022-12-23T03:49:41.536Z,19.78
2022-12-23T03:52:20.510Z,19.77
2022-12-23T03:54:54.385Z,19.76
2022-12-23T03:57:22.629Z,19.74
2022-12-23T03:59:54.126Z,19.72
2022-12-23T04:02:46.188Z,19.71
2022-12-23T04:05:23.153Z,19.70
2022-12-23T04:08:08.907Z,19.69
2022-12-23T04:10:35.638Z,19.68
2022-12-23T04:13:02.229Z,19.64
2022-12-23T04:15:29.342Z,19.65
2022-12-23T04:17:57.293Z,19.64
2022-12-23T04:20:24.386Z,19.62
2022-12-23T04:22:50.900Z,19.62
2022-12-23T04:25:18.209Z,19.63
2022-12-23T04:27:44.687Z,19.61
2022-12-23T04:30:13.702Z,19.59
2022-12-23T04:32:41.608Z,19.59
2022-12-23T04:35:08.898Z,19.58
2022-12-23T04:37:35.542Z,19.57
2022-12-23T04:40:02.004Z,19.56
2022-12-23T04:42:28.499Z,19.56
2022-12-23T04:44:54.931Z,19.54
2022-12-23T04:47:21.394Z,19.54
2022-12-23T04:49:47.861Z,19.53
2022-12-23T04:52:14.416Z,19.52
2022-12-23T04:54:46.072Z,19.52
2022-12-23T04:57:13.606Z,19.52
2022-12-23T04:59:40.023Z,19.50
2022-12-23T05:02:07.962Z,19.49
2022-12-23T05:04:34.884Z,19.48
2022-12-23T05:07:01.447Z,19.46
2022-12-23T05:09:27.932Z,19.46
2022-12-23T05:11:54.549Z,19.46
2022-12-23T05:14:21.124Z,19.44
2022-12-23T05:16:47.675Z,19.45
2022-12-23T05:19:14.141Z,19.45
2022-12-23T05:21:40.639Z,19.43
2022-12-23T05:24:07.179Z,19.42
2022-12-23T05:26:33.645Z,19.41
2022-12-23T05:29:00.118Z,19.40
2022-12-23T05:31:26.718Z,19.39
2022-12-23T05:33:53.345Z,19.38
2022-12-23T05:36:19.893Z,19.38
2022-12-23T05:38:46.382Z,19.37
2022-12-23T05:41:12.876Z,19.37
2022-12-23T05:43:39.326Z,19.33
2022-12-23T05:46:05.884Z,19.36
2022-12-23T05:48:32.403Z,19.36
2022-12-23T05:50:58.909Z,19.36
2022-12-23T05:53:26.592Z,19.41
2022-12-23T05:55:53.106Z,19.45
2022-12-23T05:58:19.622Z,19.52
2022-12-23T06:00:46.141Z,19.58
2022-12-23T06:03:12.698Z,19.71
2022-12-23T06:05:40.056Z,19.80
2022-12-23T06:08:06.518Z,19.90
2022-12-23T06:10:33.001Z,20.01
2022-12-23T06:12:59.501Z,20.11
2022-12-23T06:15:25.969Z,20.19
2022-12-23T06:17:52.398Z,20.28
2022-12-23T06:20:20.953Z,20.37
2022-12-23T06:22:48.175Z,20.44
2022-12-23T06:25:14.825Z,20.54
2022-12-23T06:27:41.319Z,20.61
2022-12-23T06:30:08.546Z,20.70
2022-12-23T06:32:38.635Z,20.78
2022-12-23T06:35:06.832Z,20.85
2022-12-23T06:37:33.250Z,20.92
2022-12-23T06:39:59.799Z,20.96
2022-12-23T06:42:26.299Z,21.06
2022-12-23T06:44:52.782Z,21.11
2022-12-23T06:47:19.373Z,21.17
2022-12-23T06:49:45.852Z,21.21
2022-12-23T06:52:12.308Z,21.27
2022-12-23T06:54:38.788Z,21.30
2022-12-23T06:57:05.367Z,21.35
2022-12-23T06:59:31.856Z,21.40
2022-12-23T07:01:58.485Z,21.44
2022-12-23T07:04:25.136Z,21.49
2022-12-23T07:06:51.636Z,21.52
2022-12-23T07:09:18.402Z,21.56
2022-12-23T07:11:44.886Z,21.59
2022-12-23T07:14:11.694Z,21.64
2022-12-23T07:16:38.340Z,21.66
2022-12-23T07:19:04.923Z,21.71
2022-12-23T07:21:31.504Z,21.75
2022-12-23T07:23:58.091Z,21.78
2022-12-23T07:26:24.698Z,21.80
2022-12-23T07:28:51.134Z,21.83
2022-12-23T07:31:17.653Z,21.85
2022-12-23T07:33:44.659Z,21.88
2022-12-23T07:36:11.220Z,21.90
2022-12-23T07:38:37.707Z,21.93
2022-12-23T07:41:04.246Z,21.96
2022-12-23T07:43:30.845Z,21.95
2022-12-23T07:46:00.308Z,21.99
2022-12-23T07:48:27.808Z,22.03
2022-12-23T07:51:00.499Z,22.06
2022-12-23T07:53:27.108Z,22.09
2022-12-23T07:55:56.671Z,22.13
2022-12-23T07:58:24.005Z,22.17
2022-12-23T08:00:50.590Z,22.20
2022-12-23T08:03:17.440Z,22.24
2022-12-23T08:05:44.246Z,22.28
2022-12-23T08:08:10.768Z,22.31
2022-12-23T08:10:40.304Z,22.37
2022-12-23T08:13:11.040Z,22.40
2022-12-23T08:15:37.489Z,22.38
2022-12-23T08:18:04.070Z,22.41
2022-12-23T08:20:30.540Z,22.46
2022-12-23T08:22:57.021Z,22.48
2022-12-23T08:25:23.473Z,22.54
2022-12-23T08:27:51.279Z,22.62
2022-12-23T08:30:18.869Z,22.66
2022-12-23T08:32:45.377Z,22.68
2022-12-23T08:35:11.815Z,22.74
2022-12-23T08:37:38.385Z,22.77
2022-12-23T08:40:05.468Z,22.76
2022-12-23T08:42:32.112Z,22.78
2022-12-23T08:44:58.718Z,22.80
2022-12-23T08:47:25.227Z,22.78
2022-12-23T08:49:51.685Z,22.74
2022-12-23T08:52:18.157Z,22.70
2022-12-23T08:54:44.686Z,22.71
2022-12-23T08:57:11.134Z,22.74
2022-12-23T08:59:37.661Z,22.77
2022-12-23T09:02:04.258Z,22.79
2022-12-23T09:04:30.838Z,22.81
2022-12-23T09:06:57.316Z,22.81
2022-12-23T09:09:23.842Z,22.82
2022-12-23T09:11:50.422Z,22.79
2022-12-23T09:14:16.942Z,22.80
2022-12-23T09:16:43.404Z,22.81
2022-12-23T09:19:10.001Z,22.81
2022-12-23T09:21:36.778Z,22.78
2022-12-23T09:24:03.480Z,22.79
2022-12-23T09:26:32.028Z,22.79
2022-12-23T09:28:58.878Z,22.78
2022-12-23T09:31:29.280Z,22.77
2022-12-23T09:34:00.820Z,22.75
2022-12-23T09:36:27.525Z,22.77
2022-12-23T09:38:55.680Z,22.75
2022-12-23T09:41:43.643Z,22.72
2022-12-23T09:44:45.677Z,22.71
2022-12-23T09:47:17.283Z,22.68
2022-12-23T09:49:49.837Z,22.69
2022-12-23T09:52:24.049Z,22.67
2022-12-23T09:54:53.991Z,22.69
2022-12-23T09:57:45.070Z,22.71
2022-12-23T10:00:15.134Z,22.71
2022-12-23T10:02:44.566Z,22.72
2022-12-23T10:05:30.498Z,22.72
2022-12-23T10:08:04.226Z,22.75
2022-12-23T10:10:36.493Z,22.76
2022-12-23T10:13:06.314Z,22.74
2022-12-23T10:15:44.657Z,22.74
2022-12-23T10:18:24.358Z,22.77
2022-12-23T10:21:01.526Z,22.79
2022-12-23T10:23:35.310Z,22.79
2022-12-23T10:26:07.590Z,22.82
2022-12-23T10:28:34.291Z,22.82
2022-12-23T10:31:38.704Z,22.71
2022-12-23T10:34:12.014Z,22.70
2022-12-23T10:37:02.856Z,22.72
2022-12-23T10:39:38.267Z,22.72
2022-12-23T10:42:16.988Z,22.73
2022-12-23T10:44:43.414Z,22.74
2022-12-23T10:47:15.954Z,22.72
2022-12-23T10:49:55.882Z,22.75
2022-12-23T10:52:25.861Z,22.75
2022-12-23T10:54:52.338Z,22.75
2022-12-23T10:57:20.836Z,22.76
2022-12-23T10:59:47.386Z,22.77
2022-12-23T11:02:14.240Z,22.80
2022-12-23T11:04:44.537Z,22.79
2022-12-23T11:07:43.623Z,22.81
2022-12-23T11:10:17.365Z,22.80
2022-12-23T11:12:47.479Z,22.80
2022-12-23T11:15:35.099Z,22.79
2022-12-23T11:18:13.757Z,22.79
2022-12-23T11:20:42.645Z,22.79
2022-12-23T11:23:35.783Z,22.80
2022-12-23T11:26:09.767Z,22.82
2022-12-23T11:28:50.488Z,22.83
2022-12-23T11:31:27.457Z,22.83
2022-12-23T11:34:02.497Z,22.84
2022-12-23T11:36:30.643Z,22.86
2022-12-23T11:39:12.611Z,22.84
2022-12-23T11:41:45.212Z,22.87
2022-12-23T11:44:27.927Z,22.87
2022-12-23T11:46:55.009Z,22.87
2022-12-23T11:49:27.580Z,22.87
2022-12-23T11:52:06.044Z,22.86
2022-12-23T11:54:33.894Z,22.88
2022-12-23T11:57:04.200Z,22.87
2022-12-23T11:59:39.811Z,22.85
2022-12-23T12:02:21.352Z,22.88
2022-12-23T12:05:28.664Z,22.88
2022-12-23T12:08:00.011Z,22.89
2022-12-23T12:10:29.328Z,22.90
2022-12-23T12:12:58.151Z,22.89
2022-12-23T12:15:46.677Z,22.88
2022-12-23T12:18:19.057Z,22.88
2022-12-23T12:20:48.501Z,22.88
2022-12-23T12:23:20.976Z,22.88
2022-12-23T12:25:57.139Z,22.88
2022-12-23T12:28:29.936Z,22.86
2022-12-23T12:31:00.595Z,22.85
2022-12-23T12:33:40.823Z,22.83
2022-12-23T12:36:13.870Z,22.81
2022-12-23T12:38:45.881Z,22.78
2022-12-23T12:41:24.805Z,22.74
2022-12-23T12:43:59.973Z,22.72
2022-12-23T12:46:47.520Z,22.68
2022-12-23T12:49:40.013Z,22.63
2022-12-23T12:52:21.138Z,22.58
2022-12-23T12:55:01.850Z,22.57
2022-12-23T12:57:29.503Z,22.48
2022-12-23T13:00:05.239Z,22.47
2022-12-23T13:02:47.500Z,22.46
2022-12-23T13:05:32.308Z,22.42
2022-12-23T13:08:31.080Z,22.37
2022-12-23T13:11:03.672Z,22.37
2022-12-23T13:13:46.332Z,22.33
2022-12-23T13:16:32.225Z,22.30
2022-12-23T13:19:09.187Z,22.29
2022-12-23T13:21:41.632Z,22.25
2022-12-23T13:24:23.239Z,22.22
2022-12-23T13:27:17.181Z,22.22
2022-12-23T13:29:46.584Z,22.18
2022-12-23T13:32:39.642Z,22.16
2022-12-23T13:35:12.421Z,22.14
2022-12-23T13:38:00.620Z,22.10
2022-12-23T13:41:03.071Z,22.10
2022-12-23T13:43:51.042Z,22.07
2022-12-23T13:46:43.112Z,22.05
2022-12-23T13:49:30.784Z,22.03
2022-12-23T13:52:11.318Z,21.98
2022-12-23T13:54:52.536Z,21.94
2022-12-23T13:57:40.938Z,21.93
2022-12-23T14:00:17.045Z,21.93
2022-12-23T14:02:52.186Z,21.92
2022-12-23T14:05:35.348Z,21.93
2022-12-23T14:08:19.135Z,21.92
2022-12-23T14:11:00.804Z,21.92
2022-12-23T14:13:30.165Z,21.93
2022-12-23T14:16:14.898Z,21.93
2022-12-23T14:18:53.361Z,21.93
2022-12-23T14:21:49.216Z,21.91
2022-12-23T14:24:33.767Z,21.90
2022-12-23T14:27:30.995Z,21.92
2022-12-23T14:30:12.913Z,21.91
2022-12-23T14:32:50.088Z,21.91
2022-12-23T14:35:23.415Z,21.90
2022-12-23T14:38:10.486Z,21.91
2022-12-23T14:40:36.924Z,21.91
2022-12-23T14:43:22.135Z,21.92
2022-12-23T14:45:50.913Z,21.92
2022-12-23T14:48:35.812Z,21.92
2022-12-23T14:51:08.344Z,21.93
2022-12-23T14:53:37.550Z,21.92
2022-12-23T14:56:35.750Z,21.93
2022-12-23T14:59:12.692Z,21.92
2022-12-23T15:01:48.431Z,21.92
2022-12-23T15:04:19.498Z,21.92
2022-12-23T15:07:33.527Z,21.91
2022-12-23T15:10:14.527Z,21.90
2022-12-23T15:12:43.631Z,21.90
2022-12-23T15:15:30.715Z,21.86
2022-12-23T15:18:06.038Z,21.83
2022-12-23T15:20:33.988Z,21.82
2022-12-23T15:23:01.371Z,21.80
2022-12-23T15:25:31.926Z,21.80
2022-12-23T15:28:02.081Z,21.80
2022-12-23T15:30:33.966Z,21.81
2022-12-23T15:33:21.821Z,21.81
2022-12-23T15:35:53.663Z,21.87
2022-12-23T15:38:22.247Z,21.87
2022-12-23T15:41:00.309Z,21.88
2022-12-23T15:43:27.108Z,21.91
2022-12-23T15:45:53.876Z,21.93
2022-12-23T15:48:31.961Z,21.95
2022-12-23T15:54:29.446Z,21.99
2022-12-23T15:56:57.817Z,22.00
2022-12-23T15:59:29.208Z,22.02
2022-12-23T16:01:56.085Z,22.02
2022-12-23T16:04:28.524Z,22.03
2022-12-23T16:06:56.096Z,22.04
2022-12-23T16:09:29.895Z,22.05
2022-12-23T16:12:04.074Z,22.05
2022-12-23T16:14:32.571Z,22.06
2022-12-23T16:17:15.360Z,22.05
2022-12-23T16:19:46.307Z,22.06
2022-12-23T16:22:34.311Z,22.06
2022-12-23T16:25:00.781Z,22.05
2022-12-23T16:27:50.676Z,22.04
2022-12-23T16:30:24.407Z,22.04
2022-12-23T16:32:56.416Z,22.05
2022-12-23T16:35:25.656Z,22.05
2022-12-23T16:37:56.456Z,22.04
2022-12-23T16:40:24.413Z,22.06
2022-12-23T16:42:50.906Z,22.05
2022-12-23T16:45:17.468Z,22.06
2022-12-23T16:47:44.027Z,22.04
2022-12-23T16:50:14.761Z,22.04
2022-12-23T16:52:41.301Z,22.05
2022-12-23T16:55:19.387Z,22.03
2022-12-23T16:57:46.260Z,22.04
2022-12-23T17:00:16.001Z,22.03
2022-12-23T17:02:44.304Z,22.04
2022-12-23T17:05:19.991Z,22.04
2022-12-23T17:07:46.822Z,22.04
2022-12-23T17:10:15.076Z,22.04
2022-12-23T17:12:42.904Z,22.03
2022-12-23T17:15:17.379Z,22.02
2022-12-23T17:17:43.957Z,22.04
2022-12-23T17:20:11.640Z,22.04
2022-12-23T17:22:38.319Z,22.03
2022-12-23T17:25:05.363Z,22.03
2022-12-23T17:27:31.988Z,22.03
2022-12-23T17:29:58.473Z,22.03
2022-12-23T17:32:25.129Z,22.03
2022-12-23T17:34:51.621Z,22.04
2022-12-23T17:37:20.762Z,22.00
2022-12-23T17:39:48.080Z,22.02
2022-12-23T17:42:25.270Z,22.00
2022-12-23T17:44:52.458Z,22.02
2022-12-23T17:47:22.113Z,22.01
2022-12-23T17:49:49.149Z,22.02
2022-12-23T17:52:18.312Z,22.03
2022-12-23T17:54:47.844Z,22.04
2022-12-23T17:57:21.855Z,22.02
2022-12-23T17:59:49.702Z,22.03
2022-12-23T18:02:33.026Z,22.03
2022-12-23T18:04:59.893Z,22.03
2022-12-23T18:07:26.574Z,22.02
2022-12-23T18:09:53.524Z,22.03
2022-12-23T18:12:26.535Z,22.02
2022-12-23T18:14:53.001Z,22.06
2022-12-23T18:17:19.578Z,22.04
2022-12-23T18:19:46.207Z,22.03
2022-12-23T18:22:22.715Z,22.02
2022-12-23T18:24:55.319Z,22.03
2022-12-23T18:27:25.269Z,22.04
2022-12-23T18:29:51.868Z,22.06
2022-12-23T18:32:25.069Z,22.08
2022-12-23T18:34:52.640Z,22.08
2022-12-23T18:37:19.583Z,22.09
2022-12-23T18:39:46.720Z,22.08
2022-12-23T18:42:18.780Z,22.11
2022-12-23T18:44:48.087Z,22.09
2022-12-23T18:47:14.525Z,22.10
2022-12-23T18:49:41.091Z,22.07
2022-12-23T18:52:12.622Z,22.06
2022-12-23T18:54:40.071Z,22.07
2022-12-23T18:57:07.122Z,22.07
2022-12-23T18:59:36.210Z,22.06
2022-12-23T19:02:02.799Z,22.09
2022-12-23T19:04:29.315Z,22.09
2022-12-23T19:06:57.082Z,22.09
2022-12-23T19:09:24.310Z,22.10
2022-12-23T19:11:53.031Z,22.10
2022-12-23T19:14:19.505Z,22.09
2022-12-23T19:16:51.158Z,22.09
2022-12-23T19:19:18.755Z,22.09
2022-12-23T19:21:45.228Z,22.10
2022-12-23T19:24:11.784Z,22.09
2022-12-23T19:26:38.234Z,22.08
2022-12-23T19:29:04.708Z,22.10
2022-12-23T19:31:33.756Z,22.07
2022-12-23T19:34:00.691Z,22.06
2022-12-23T19:36:27.509Z,22.07
2022-12-23T19:38:56.541Z,22.07
2022-12-23T19:41:25.527Z,22.06
2022-12-23T19:43:52.086Z,22.05
2022-12-23T19:46:18.881Z,22.04
2022-12-23T19:48:51.701Z,22.02
2022-12-23T19:51:18.549Z,22.01
2022-12-23T19:53:46.067Z,22.02
2022-12-23T19:56:15.519Z,22.00
2022-12-23T19:58:46.504Z,21.99
2022-12-23T20:01:18.728Z,21.99
2022-12-23T20:03:47.100Z,21.99
2022-12-23T20:06:19.211Z,21.99
2022-12-23T20:08:46.960Z,21.98
2022-12-23T20:11:19.907Z,21.99
2022-12-23T20:13:47.137Z,21.98
2022-12-23T20:16:13.813Z,21.98
2022-12-23T20:18:40.413Z,21.97
2022-12-23T20:21:07.028Z,21.96
2022-12-23T20:23:34.615Z,21.97
2022-12-23T20:26:01.179Z,21.98
2022-12-23T20:28:28.332Z,21.98
2022-12-23T20:31:19.012Z,21.97
2022-12-23T20:33:47.061Z,21.98
2022-12-23T20:36:15.890Z,21.99
2022-12-23T20:38:44.962Z,21.97
2022-12-23T20:41:14.393Z,21.97
2022-12-23T20:43:41.287Z,21.97
2022-12-23T20:46:11.127Z,21.99
2022-12-23T20:48:38.054Z,21.97
2022-12-23T20:51:10.210Z,21.98
2022-12-23T20:56:05.503Z,21.97
2022-12-23T20:58:50.898Z,21.98
2022-12-23T21:03:44.034Z,21.97
2022-12-23T21:06:10.624Z,21.96
2022-12-23T21:08:37.995Z,21.98
2022-12-23T21:11:06.949Z,21.96
2022-12-23T21:13:33.760Z,21.96
2022-12-23T21:16:05.830Z,21.94
2022-12-23T21:18:32.429Z,21.93
2022-12-23T21:21:04.234Z,21.93
2022-12-23T21:23:31.185Z,21.92
2022-12-23T21:26:07.323Z,21.94
2022-12-23T21:28:34.026Z,21.95
2022-12-23T21:31:00.573Z,21.94
2022-12-23T21:33:27.103Z,21.93
2022-12-23T21:35:54.153Z,21.93
2022-12-23T21:38:20.731Z,21.94
2022-12-23T21:40:47.188Z,21.92
2022-12-23T21:43:13.873Z,21.92
2022-12-23T21:45:40.391Z,21.92
2022-12-23T21:48:07.435Z,21.92
2022-12-23T21:50:33.925Z,21.94
2022-12-23T21:53:00.410Z,21.94
2022-12-23T21:55:26.882Z,21.93
2022-12-23T21:57:53.446Z,21.95
2022-12-23T22:00:20.005Z,21.96
2022-12-23T22:02:46.517Z,21.94
2022-12-23T22:05:13.057Z,21.95
2022-12-23T22:07:39.551Z,21.93
2022-12-23T22:10:06.860Z,21.94
2022-12-23T22:12:33.308Z,21.94
2022-12-23T22:14:59.799Z,21.94
2022-12-23T22:17:26.281Z,21.95
2022-12-23T22:19:52.898Z,21.95
2022-12-23T22:22:19.375Z,21.93
2022-12-23T22:24:46.175Z,21.93
2022-12-23T22:27:12.644Z,21.91
2022-12-23T22:29:39.295Z,21.88
2022-12-23T22:32:05.825Z,21.85
2022-12-23T22:34:32.758Z,21.81
2022-12-23T22:36:59.333Z,21.78
2022-12-23T22:39:25.887Z,21.75
2022-12-23T22:41:52.704Z,21.71
2022-12-23T22:44:19.928Z,21.69
2022-12-23T22:46:46.584Z,21.65
2022-12-23T22:49:14.610Z,21.60
2022-12-23T22:51:42.060Z,21.56
2022-12-23T22:54:15.091Z,21.50
2022-12-23T22:56:42.066Z,21.48
2022-12-23T22:59:21.117Z,21.43
2022-12-23T23:01:48.264Z,21.40
2022-12-23T23:04:14.866Z,21.36
2022-12-23T23:06:42.501Z,21.30
2022-12-23T23:09:14.583Z,21.27
2022-12-23T23:11:43.901Z,21.21
2022-12-23T23:14:11.741Z,21.20
2022-12-23T23:16:38.785Z,21.15
2022-12-23T23:19:06.592Z,21.11
2022-12-23T23:21:34.206Z,21.08
2022-12-23T23:24:00.729Z,21.05
2022-12-23T23:26:27.552Z,21.02
2022-12-23T23:28:55.750Z,21.00
2022-12-23T23:34:09.219Z,20.96
2022-12-23T23:36:35.806Z,20.93
2022-12-23T23:39:02.370Z,20.92
2022-12-23T23:41:28.835Z,20.91
2022-12-23T23:43:55.380Z,20.90
2022-12-23T23:46:21.893Z,20.87
2022-12-23T23:48:48.580Z,20.85
2022-12-23T23:51:15.097Z,20.82
2022-12-23T23:53:41.556Z,20.79
2022-12-23T23:56:09.001Z,20.77
2022-12-23T23:58:36.527Z,20.75
